Time;durP1;ratioP1;P1;durP2;ratioP2;P2;SDS_P1;SDS_P2;PMS_P1;PMS_P2;Temp;Humidity;BMP_temperature;BMP_pressure;BME280_temperature;BME280_humidity;BME280_pressure;Samples;Min_cycle;Max_cycle;Signal;HPM_P1;HPM_P2
2021/12/22 00:02:48;;;;;;;19.83;8.95;;;;;;;-4.73;100.00;95533.72;10279549;28;20154;-76
2021/12/22 00:07:49;;;;;;;21.98;8.85;;;;;;;-4.84;100.00;95529.59;10279865;28;20398;-73
2021/12/22 00:12:50;;;;;;;16.65;9.40;;;;;;;-4.90;100.00;95531.00;10264096;28;20027;-81
2021/12/22 00:17:51;;;;;;;11.98;7.50;;;;;;;-4.88;100.00;95530.88;10278396;28;20097;-74
2021/12/22 00:22:52;;;;;;;14.07;8.73;;;;;;;-4.83;100.00;95531.22;10316832;28;20121;-73
2021/12/22 00:27:58;;;;;;;18.02;7.95;;;;;;;-5.09;100.00;95537.34;10283775;28;20049;-73
2021/12/22 00:33:04;;;;;;;16.58;9.10;;;;;;;-4.95;100.00;95537.72;10278966;28;20664;-71
2021/12/22 00:38:09;;;;;;;13.90;7.57;;;;;;;-4.95;100.00;95540.34;10279265;28;20033;-72
2021/12/22 00:43:10;;;;;;;14.65;8.38;;;;;;;-5.02;100.00;95546.22;10280394;28;20026;-74
2021/12/22 00:48:11;;;;;;;20.23;9.40;;;;;;;-5.08;100.00;95559.13;10278627;28;20042;-76
2021/12/22 00:53:12;;;;;;;14.48;8.45;;;;;;;-5.23;100.00;95564.94;10279896;28;20069;-77
2021/12/22 00:58:12;;;;;;;18.38;8.25;;;;;;;-5.36;100.00;95561.91;10277324;28;20509;-72
2021/12/22 01:03:19;;;;;;;13.75;8.40;;;;;;;-5.36;100.00;95565.34;10284518;28;20030;-76
2021/12/22 01:08:20;;;;;;;12.77;7.63;;;;;;;-5.32;100.00;95556.22;10269333;28;20039;-72
2021/12/22 01:13:21;;;;;;;18.95;8.30;;;;;;;-5.38;100.00;95556.00;10285401;28;20420;-69
2021/12/22 01:18:32;;;;;;;13.60;5.97;;;;;;;-5.43;100.00;95545.97;10289945;28;20030;-73
2021/12/22 01:23:40;;;;;;;11.40;6.55;;;;;;;-5.44;100.00;95538.25;10288269;28;20578;-69
2021/12/22 01:28:42;;;;;;;18.33;7.82;;;;;;;-5.73;100.00;95539.38;10291649;28;20417;-77
2021/12/22 01:33:43;;;;;;;10.88;5.90;;;;;;;-5.72;100.00;95528.75;10294712;28;20038;-77
2021/12/22 01:38:44;;;;;;;7.88;5.70;;;;;;;-5.78;100.00;95525.94;10285134;28;20027;-69
2021/12/22 01:43:46;;;;;;;16.50;6.78;;;;;;;-5.90;100.00;95531.41;10285641;28;20412;-71
2021/12/22 01:49:11;;;;;;;6.88;5.50;;;;;;;-5.95;100.00;95535.44;10284125;28;20039;-74
2021/12/22 01:54:21;;;;;;;6.25;4.65;;;;;;;-6.04;100.00;95522.31;10283591;28;20066;-75
2021/12/22 01:59:22;;;;;;;13.48;6.95;;;;;;;-5.99;100.00;95521.84;10284209;28;20031;-73
2021/12/22 02:04:22;;;;;;;12.00;6.35;;;;;;;-6.09;100.00;95516.72;10283913;28;20023;-76
2021/12/22 02:09:39;;;;;;;8.70;6.70;;;;;;;-6.05;100.00;95514.63;10288422;28;20099;-73
2021/12/22 02:14:41;;;;;;;7.57;5.80;;;;;;;-6.20;100.00;95532.63;10269471;28;20607;-77
2021/12/22 02:19:49;;;;;;;14.70;5.95;;;;;;;-6.68;100.00;95520.69;10283213;28;20026;-69
2021/12/22 02:24:57;;;;;;;11.18;5.45;;;;;;;-6.61;100.00;95514.75;10283035;28;20023;-72
2021/12/22 02:30:01;;;;;;;7.90;5.95;;;;;;;-6.59;100.00;95515.41;10299243;28;20035;-72
2021/12/22 02:35:04;;;;;;;11.73;7.30;;;;;;;-6.74;100.00;95512.50;10282700;28;20479;-76
2021/12/22 02:40:11;;;;;;;10.63;8.15;;;;;;;-6.83;100.00;95504.72;10282558;28;20105;-77
2021/12/22 02:45:18;;;;;;;19.50;11.35;;;;;;;-6.68;100.00;95500.63;10267315;28;20035;-74
2021/12/22 02:50:18;;;;;;;18.10;12.20;;;;;;;-6.81;100.00;95503.56;10282008;28;20039;-73
2021/12/22 02:55:26;;;;;;;17.42;8.75;;;;;;;-6.71;100.00;95499.13;10282290;28;20055;-75
2021/12/22 03:00:35;;;;;;;23.67;15.18;;;;;;;-6.53;100.00;95498.31;10282965;28;20129;-73
2021/12/22 03:05:38;;;;;;;19.27;10.52;;;;;;;-6.51;100.00;95503.41;10298581;28;20035;-78
2021/12/22 03:10:38;;;;;;;23.55;9.02;;;;;;;-6.44;100.00;95507.88;10281947;28;20595;-71
2021/12/22 03:15:38;;;;;;;13.80;8.93;;;;;;;-6.38;100.00;95501.25;10282094;28;20031;-71
2021/12/22 03:20:40;;;;;;;16.88;9.98;;;;;;;-6.47;100.00;95502.13;10280620;28;20026;-70
2021/12/22 03:25:40;;;;;;;15.13;10.25;;;;;;;-6.55;100.00;95505.50;10280035;28;20105;-72
2021/12/22 03:30:41;;;;;;;12.90;8.25;;;;;;;-6.69;100.00;95509.44;10281376;28;20026;-73
2021/12/22 03:35:41;;;;;;;13.82;10.18;;;;;;;-6.69;100.00;95512.03;10280357;28;20026;-75
2021/12/22 03:40:42;;;;;;;20.70;9.63;;;;;;;-6.70;100.00;95505.16;10281849;28;20023;-76
2021/12/22 03:45:42;;;;;;;9.50;6.93;;;;;;;-6.88;100.00;95511.19;10281625;28;20448;-72
2021/12/22 03:50:43;;;;;;;9.95;7.80;;;;;;;-6.86;100.00;95511.06;10263835;28;20444;-78
2021/12/22 03:55:44;;;;;;;8.65;6.18;;;;;;;-6.93;100.00;95508.19;10295475;28;20038;-72
2021/12/22 04:00:45;;;;;;;9.25;6.53;;;;;;;-6.91;100.00;95510.66;10280492;28;20038;-73
2021/12/22 04:05:46;;;;;;;8.52;6.72;;;;;;;-6.79;100.00;95512.09;10280373;28;20023;-74
2021/12/22 04:10:48;;;;;;;8.65;7.38;;;;;;;-6.73;100.00;95510.69;10280117;28;20489;-76
2021/12/22 04:15:49;;;;;;;9.45;6.72;;;;;;;-6.68;100.00;95518.09;10263958;28;20023;-75
2021/12/22 04:20:50;;;;;;;10.68;6.95;;;;;;;-6.83;100.00;95523.81;10295195;28;20027;-77
2021/12/22 04:25:51;;;;;;;6.38;5.80;;;;;;;-6.93;100.00;95523.06;10279603;28;20489;-76
2021/12/22 04:30:51;;;;;;;8.85;8.02;;;;;;;-7.10;100.00;95540.28;10278972;28;20723;-72
2021/12/22 04:35:52;;;;;;;18.38;9.23;;;;;;;-7.10;100.00;95532.47;10280281;28;20053;-69
2021/12/22 04:40:53;;;;;;;10.50;7.38;;;;;;;-7.16;100.00;95531.25;10262725;28;20049;-75
2021/12/22 04:45:53;;;;;;;14.48;8.52;;;;;;;-6.97;100.00;95524.31;10278777;28;20114;-76
2021/12/22 04:50:54;;;;;;;6.70;5.93;;;;;;;-6.88;100.00;95539.94;10294301;28;20027;-72
2021/12/22 04:55:54;;;;;;;7.97;7.20;;;;;;;-7.13;100.00;95543.19;10278057;28;20096;-71
2021/12/22 05:00:55;;;;;;;9.57;7.40;;;;;;;-7.28;100.00;95545.47;10263653;28;20039;-74
2021/12/22 05:05:55;;;;;;;10.70;7.18;;;;;;;-7.38;100.00;95546.31;10278939;28;20035;-75
2021/12/22 05:10:56;;;;;;;7.63;6.88;;;;;;;-7.49;100.00;95541.28;10279389;28;20022;-73
2021/12/22 05:15:56;;;;;;;10.10;7.35;;;;;;;-7.49;100.00;95545.66;10279307;28;20015;-75
2021/12/22 05:20:57;;;;;;;5.47;4.78;;;;;;;-7.24;100.00;95559.88;10277976;28;20027;-75
2021/12/22 05:25:58;;;;;;;11.20;8.30;;;;;;;-7.25;100.00;95560.84;10276648;28;20022;-78
2021/12/22 05:30:59;;;;;;;10.93;8.60;;;;;;;-7.07;100.00;95560.94;10279478;28;20058;-76
2021/12/22 05:35:59;;;;;;;13.70;8.60;;;;;;;-7.04;100.00;95566.69;10279464;28;20984;-76
2021/12/22 05:41:00;;;;;;;8.88;7.97;;;;;;;-7.26;100.00;95569.66;10278904;28;20034;-79
2021/12/22 05:46:01;;;;;;;9.50;7.40;;;;;;;-7.18;100.00;95572.38;10295236;28;20401;-79
2021/12/22 05:51:02;;;;;;;9.23;7.18;;;;;;;-7.21;100.00;95573.47;10285701;28;20034;-77
2021/12/22 05:56:04;;;;;;;14.13;8.32;;;;;;;-7.00;100.00;95572.44;10283231;28;20043;-78
2021/12/22 06:01:05;;;;;;;15.15;8.30;;;;;;;-6.91;100.00;95560.31;10300186;28;20051;-79
2021/12/22 06:06:05;;;;;;;16.90;6.65;;;;;;;-6.91;100.00;95566.34;10282961;28;20114;-77
2021/12/22 06:11:06;;;;;;;8.93;5.82;;;;;;;-6.76;100.00;95571.13;10282984;28;20404;-75
2021/12/22 06:16:06;;;;;;;9.13;6.25;;;;;;;-6.68;100.00;95572.97;10284623;28;20110;-80
2021/12/22 06:21:07;;;;;;;17.20;6.72;;;;;;;-6.61;100.00;95576.69;10259433;28;20643;-78
2021/12/22 06:26:07;;;;;;;10.85;7.07;;;;;;;-6.75;100.00;95588.44;10279498;28;20031;-74
2021/12/22 06:31:08;;;;;;;10.00;8.80;;;;;;;-6.64;100.00;95595.25;10284368;28;20031;-76
2021/12/22 06:36:09;;;;;;;10.07;6.57;;;;;;;-6.55;100.00;95597.00;10283857;28;20022;-76
2021/12/22 06:41:09;;;;;;;10.43;5.53;;;;;;;-6.69;100.00;95587.84;10282836;28;20130;-76
2021/12/22 06:46:10;;;;;;;14.63;9.90;;;;;;;-6.75;100.00;95588.44;10268308;28;20102;-77
2021/12/22 06:51:10;;;;;;;22.45;8.95;;;;;;;-6.66;100.00;95594.59;10268766;28;20370;-75
2021/12/22 06:56:11;;;;;;;10.45;7.40;;;;;;;-6.56;100.00;95598.81;10243794;28;20474;-73
2021/12/22 07:01:17;;;;;;;25.27;8.90;;;;;;;-6.31;100.00;95603.47;10268674;28;20041;-79
2021/12/22 07:06:18;;;;;;;21.08;10.98;;;;;;;-6.25;100.00;95603.72;10243832;28;20473;-80
2021/12/22 07:11:18;;;;;;;19.65;10.02;;;;;;;-6.14;100.00;95607.91;10264862;28;20029;-80
2021/12/22 07:16:19;;;;;;;17.17;7.72;;;;;;;-5.99;100.00;95600.38;10281372;28;20023;-74
2021/12/22 07:21:20;;;;;;;17.52;8.23;;;;;;;-5.89;100.00;95610.72;10282503;28;20034;-75
2021/12/22 07:26:21;;;;;;;19.67;9.32;;;;;;;-5.73;100.00;95604.84;10280622;28;20485;-79
2021/12/22 07:31:21;;;;;;;28.85;10.88;;;;;;;-5.61;100.00;95601.03;10281970;28;20085;-77
2021/12/22 07:36:22;;;;;;;18.30;9.88;;;;;;;-5.23;100.00;95603.41;10262846;28;20103;-73
2021/12/22 07:41:23;;;;;;;17.77;9.32;;;;;;;-4.82;100.00;95596.59;10276910;28;20082;-73
2021/12/22 07:46:24;;;;;;;17.13;8.23;;;;;;;-4.40;100.00;95594.97;10273199;28;20734;-72
2021/12/22 07:51:26;;;;;;;13.90;7.28;;;;;;;-4.01;100.00;95597.06;10253949;28;20031;-74
2021/12/22 07:56:26;;;;;;;14.77;6.75;;;;;;;-3.66;100.00;95592.50;10273446;28;20046;-80
2021/12/22 08:01:27;;;;;;;16.77;7.78;;;;;;;-3.61;100.00;95586.78;10279376;28;20038;-75
2021/12/22 08:06:28;;;;;;;25.38;9.73;;;;;;;-3.35;100.00;95593.66;10274599;28;20097;-72
2021/12/22 08:11:28;;;;;;;18.40;9.98;;;;;;;-3.08;100.00;95589.88;10238234;28;20087;-73
2021/12/22 08:16:29;;;;;;;13.52;9.68;;;;;;;-2.83;100.00;95587.16;10238861;28;20114;-75
2021/12/22 08:21:29;;;;;;;18.90;9.10;;;;;;;-2.58;100.00;95598.47;10256563;28;20033;-80
2021/12/22 08:26:31;;;;;;;19.08;9.75;;;;;;;-2.08;96.97;95604.31;10251357;28;20035;-71
2021/12/22 08:31:33;;;;;;;14.10;8.43;;;;;;;-1.08;94.29;95594.72;10279228;28;20125;-78
2021/12/22 08:41:53;;;;;;;17.55;9.00;;;;;;;0.41;75.08;95597.25;10280474;28;20372;-77
2021/12/22 08:46:55;;;;;;;18.08;8.77;;;;;;;0.75;67.27;95597.56;10278503;28;20031;-75
2021/12/22 08:51:56;;;;;;;12.25;7.32;;;;;;;0.45;68.36;95595.88;10262890;28;20043;-77
2021/12/22 08:56:57;;;;;;;19.88;8.45;;;;;;;0.65;69.80;95598.69;10277624;28;20050;-70
2021/12/22 09:01:58;;;;;;;15.55;8.00;;;;;;;1.22;68.29;95590.81;10281186;28;20035;-77
2021/12/22 09:06:58;;;;;;;19.08;8.73;;;;;;;1.26;62.74;95585.97;10277804;28;20026;-73
2021/12/22 09:11:59;;;;;;;16.02;8.18;;;;;;;0.69;65.31;95593.84;10273779;28;20038;-71
2021/12/22 09:17:00;;;;;;;20.38;9.48;;;;;;;0.51;67.35;95596.94;10279091;28;20417;-80
2021/12/22 09:22:00;;;;;;;20.85;10.35;;;;;;;0.46;69.27;95596.69;10281392;28;20178;-74
2021/12/22 09:27:01;;;;;;;24.92;12.20;;;;;;;0.06;69.57;95591.78;10301416;28;20121;-70
2021/12/22 09:32:01;;;;;;;40.55;18.50;;;;;;;-0.13;76.80;95589.75;10301023;28;20468;-73
2021/12/22 09:37:02;;;;;;;25.85;14.38;;;;;;;0.02;78.08;95585.25;10292908;28;20397;-72
2021/12/22 09:42:04;;;;;;;35.75;16.15;;;;;;;0.39;76.76;95579.94;10270663;28;20022;-78
2021/12/22 09:47:05;;;;;;;39.72;14.80;;;;;;;0.74;68.82;95567.66;10284008;28;20125;-78
2021/12/22 09:52:21;;;;;;;32.00;15.13;;;;;;;0.97;67.11;95574.53;10236613;28;20034;-76
2021/12/22 09:57:23;;;;;;;36.17;14.85;;;;;;;1.52;62.96;95559.63;10244724;28;20086;-80
2021/12/22 10:02:30;;;;;;;33.33;16.00;;;;;;;2.86;60.53;95554.69;10261492;28;20469;-73
2021/12/22 10:07:37;;;;;;;30.30;13.77;;;;;;;4.24;51.92;95542.25;10247620;28;20035;-80
2021/12/22 10:12:40;;;;;;;30.48;15.05;;;;;;;5.22;49.65;95541.91;10257374;28;20097;-73
2021/12/22 10:17:43;;;;;;;28.88;13.00;;;;;;;6.38;45.90;95530.56;10281797;28;20042;-77
2021/12/22 10:22:46;;;;;;;23.65;12.52;;;;;;;6.73;42.67;95532.56;10285214;28;20033;-76
2021/12/22 10:28:15;;;;;;;24.85;13.07;;;;;;;6.33;43.65;95525.94;10271904;28;20026;-78
2021/12/22 10:33:18;;;;;;;29.60;14.23;;;;;;;5.72;45.01;95528.50;10280631;28;20031;-77
2021/12/22 10:38:22;;;;;;;31.48;15.73;;;;;;;5.29;45.03;95522.19;10299331;28;20038;-74
2021/12/22 10:43:32;;;;;;;42.20;17.17;;;;;;;4.57;46.08;95517.25;10276708;28;20114;-73
2021/12/22 10:53:56;;;;;;;43.33;18.08;;;;;;;3.00;51.62;95528.09;10283407;28;20066;-79
2021/12/22 10:59:08;;;;;;;31.90;15.05;;;;;;;2.24;52.19;95518.69;10283955;28;20026;-77
2021/12/22 11:04:21;;;;;;;42.97;18.25;;;;;;;1.61;55.08;95512.59;10285304;28;20031;-75
2021/12/22 11:09:23;;;;;;;30.77;15.48;;;;;;;1.49;55.22;95504.41;10280441;28;20035;-76
2021/12/22 11:14:29;;;;;;;25.20;14.90;;;;;;;1.35;59.03;95508.81;10277926;28;20035;-77
2021/12/22 11:19:37;;;;;;;34.17;15.80;;;;;;;1.56;58.30;95499.09;10277867;28;20078;-73
2021/12/22 11:24:53;;;;;;;40.13;17.40;;;;;;;1.68;58.77;95499.38;10280658;28;20066;-73
2021/12/22 11:29:58;;;;;;;34.22;16.77;;;;;;;1.90;56.92;95501.88;10280938;28;20534;-70
2021/12/22 11:35:04;;;;;;;35.33;17.65;;;;;;;1.93;56.83;95489.03;10282144;28;20070;-73
2021/12/22 11:40:09;;;;;;;44.30;17.27;;;;;;;2.25;56.87;95484.00;10278423;28;20053;-78
2021/12/22 11:45:18;;;;;;;34.08;18.13;;;;;;;1.98;56.40;95488.44;10266935;28;20027;-78
2021/12/22 11:50:21;;;;;;;41.45;17.00;;;;;;;1.99;59.94;95487.44;10280465;28;20125;-78
2021/12/22 11:55:36;;;;;;;45.50;20.48;;;;;;;1.71;60.21;95491.00;10263404;28;20039;-75
2021/12/22 12:00:39;;;;;;;41.97;19.13;;;;;;;1.80;59.55;95486.34;10279821;28;20027;-79
2021/12/22 12:05:40;;;;;;;50.75;22.23;;;;;;;1.28;61.28;95491.25;10270118;28;20035;-77
2021/12/22 12:10:42;;;;;;;52.33;23.35;;;;;;;1.08;63.85;95486.66;10260559;28;20042;-73
2021/12/22 12:21:47;;;;;;;45.95;20.85;;;;;;;0.67;66.06;95472.34;10269075;28;20042;-77
2021/12/22 12:26:48;;;;;;;47.08;20.85;;;;;;;0.66;67.50;95473.34;10264745;28;20051;-74
2021/12/22 12:31:48;;;;;;;41.60;20.00;;;;;;;0.89;67.27;95453.75;10247038;28;20879;-75
2021/12/22 12:36:49;;;;;;;49.58;22.92;;;;;;;0.87;68.84;95455.00;10255063;28;20493;-78
2021/12/22 12:42:00;;;;;;;56.90;22.00;;;;;;;1.24;67.99;95448.44;10225887;29;20035;-76
2021/12/22 12:47:17;;;;;;;42.42;22.38;;;;;;;1.01;69.68;95438.16;10240205;28;20035;-74
2021/12/22 12:52:24;;;;;;;55.30;24.10;;;;;;;0.93;65.96;95433.03;10241971;28;20039;-74
2021/12/22 12:57:28;;;;;;;54.65;24.35;;;;;;;0.63;68.78;95431.44;10227490;29;20619;-75
2021/12/22 13:02:30;;;;;;;55.85;26.02;;;;;;;0.22;73.70;95442.69;10263624;28;20034;-78
2021/12/22 13:07:31;;;;;;;49.85;24.27;;;;;;;0.12;76.33;95439.56;10295964;28;20039;-74
2021/12/22 13:18:29;;;;;;;40.90;21.58;;;;;;;0.46;74.11;95451.22;10288397;28;20114;-77
2021/12/22 13:23:31;;;;;;;;;;;;;;;0.48;72.83;95449.22;10284598;28;20077;-76
2021/12/22 13:28:35;;;;;;;38.08;18.45;;;;;;;0.55;74.06;95450.09;10304569;28;20351;-69
2021/12/22 13:33:44;;;;;;;38.13;18.58;;;;;;;0.56;75.33;95450.88;10288636;28;20030;-72
2021/12/22 13:38:58;;;;;;;38.80;16.95;;;;;;;0.47;78.19;95448.38;10286899;28;20027;-78
2021/12/22 13:44:02;;;;;;;43.15;17.70;;;;;;;0.44;75.52;95451.41;10273442;28;20042;-72
2021/12/22 13:49:09;;;;;;;25.95;13.65;;;;;;;0.38;72.33;95446.06;10285474;28;20153;-77
2021/12/22 13:54:19;;;;;;;31.08;14.15;;;;;;;0.13;76.30;95449.97;10286239;28;20106;-77
2021/12/22 13:59:24;;;;;;;27.00;15.07;;;;;;;-0.04;76.04;95461.81;10284861;28;20520;-81
2021/12/22 14:04:35;;;;;;;32.67;17.35;;;;;;;-0.54;79.75;95457.22;10285298;28;20379;-77
2021/12/22 14:09:48;;;;;;;29.55;15.48;;;;;;;-0.48;84.78;95460.13;10284265;28;20026;-75
2021/12/22 14:14:50;;;;;;;39.35;17.30;;;;;;;-0.42;81.70;95465.47;10284489;28;20050;-76
2021/12/22 14:19:50;;;;;;;36.38;19.00;;;;;;;-0.43;80.67;95468.28;10284353;28;20073;-76
2021/12/22 14:25:14;;;;;;;35.43;16.67;;;;;;;-0.59;83.07;95478.06;10284281;28;20166;-78
2021/12/22 14:30:23;;;;;;;27.48;11.00;;;;;;;-0.71;81.95;95477.72;10284779;28;20359;-81
2021/12/22 14:35:25;;;;;;;18.40;11.20;;;;;;;-0.72;81.85;95485.84;10266715;28;20027;-68
2021/12/22 14:40:28;;;;;;;15.55;8.27;;;;;;;-0.77;81.68;95483.72;10248226;28;20086;-75
2021/12/22 14:45:53;;;;;;;17.05;9.93;;;;;;;-0.91;82.86;95488.03;10246191;28;20386;-79
2021/12/22 14:51:09;;;;;;;10.05;7.20;;;;;;;-1.00;82.87;95497.03;10282520;28;20109;-76
2021/12/22 14:56:19;;;;;;;12.18;6.80;;;;;;;-1.28;84.29;95499.50;10283212;28;20074;-73
2021/12/22 15:01:22;;;;;;;12.30;6.95;;;;;;;-1.35;86.40;95496.75;10282790;28;20045;-82
2021/12/22 15:06:28;;;;;;;12.70;8.30;;;;;;;-1.60;88.08;95509.34;10268002;28;20058;-81
2021/12/22 15:11:29;;;;;;;11.43;6.25;;;;;;;-1.55;90.43;95501.69;10286283;28;20023;-78
2021/12/22 15:16:31;;;;;;;16.92;6.53;;;;;;;-1.65;90.68;95504.56;10282623;28;20022;-76
2021/12/22 15:21:31;;;;;;;13.52;7.22;;;;;;;-1.69;90.36;95503.28;10281563;28;20138;-76
2021/12/22 15:26:32;;;;;;;16.10;7.93;;;;;;;-1.68;90.33;95506.75;10281733;28;20117;-78
2021/12/22 15:31:33;;;;;;;22.02;8.35;;;;;;;-1.72;92.74;95509.75;10280015;28;20035;-77
2021/12/22 15:36:34;;;;;;;16.67;7.70;;;;;;;-1.90;94.43;95519.75;10280440;28;20049;-79
2021/12/22 15:41:34;;;;;;;19.67;7.22;;;;;;;-1.87;94.13;95513.31;10278021;28;20029;-74
2021/12/22 15:46:35;;;;;;;11.95;8.02;;;;;;;-2.07;93.24;95521.69;10263820;28;20524;-76
2021/12/22 15:51:38;;;;;;;12.60;7.80;;;;;;;-2.22;95.29;95526.88;10280286;28;20122;-77
2021/12/22 15:56:38;;;;;;;20.73;7.25;;;;;;;-2.28;92.19;95523.13;10279209;28;20059;-77
2021/12/22 16:01:39;;;;;;;15.90;8.35;;;;;;;-2.26;95.14;95525.59;10280859;28;20468;-77
2021/12/22 16:06:39;;;;;;;19.13;9.02;;;;;;;-2.24;95.60;95523.59;10252246;28;20027;-74
2021/12/22 16:11:40;;;;;;;15.43;8.35;;;;;;;-2.25;94.32;95532.50;10248141;28;20045;-76
2021/12/22 16:16:41;;;;;;;14.52;7.57;;;;;;;-2.36;93.32;95531.06;10249119;28;20425;-76
2021/12/22 16:21:41;;;;;;;20.50;9.93;;;;;;;-2.54;92.67;95530.50;10253281;28;20037;-77
2021/12/22 16:26:41;;;;;;;16.60;7.10;;;;;;;-2.38;92.96;95525.16;10261660;28;20038;-72
2021/12/22 16:31:42;;;;;;;20.55;8.00;;;;;;;-2.34;95.46;95530.91;10277771;28;20039;-75
2021/12/22 16:36:45;;;;;;;18.42;8.52;;;;;;;-2.28;94.69;95538.91;10275657;28;20034;-77
2021/12/22 16:41:46;;;;;;;17.60;7.82;;;;;;;-2.31;92.27;95541.91;10255708;28;20031;-72
2021/12/22 16:46:47;;;;;;;13.38;8.23;;;;;;;-2.56;93.61;95546.47;10255930;28;20489;-72
2021/12/22 16:51:47;;;;;;;14.88;6.50;;;;;;;-2.67;93.81;95546.84;10279433;28;20101;-78
2021/12/22 16:56:48;;;;;;;11.48;7.07;;;;;;;-2.82;93.85;95546.72;10271247;28;20530;-73
2021/12/22 17:01:49;;;;;;;13.05;7.13;;;;;;;-2.83;94.87;95555.59;10280145;28;20489;-81
2021/12/22 17:06:51;;;;;;;20.98;10.35;;;;;;;-2.96;95.68;95549.09;10254874;28;20070;-76
2021/12/22 17:11:52;;;;;;;18.05;10.30;;;;;;;-3.21;100.00;95564.09;10252430;28;20120;-75
2021/12/22 17:17:01;;;;;;;22.70;10.52;;;;;;;-3.33;100.00;95563.59;10268829;28;20252;-75
2021/12/22 17:22:01;;;;;;;14.98;8.25;;;;;;;-3.39;100.00;95564.28;10279067;28;20696;-77
2021/12/22 17:27:04;;;;;;;19.40;10.65;;;;;;;-3.44;100.00;95569.19;10269209;28;20042;-77
2021/12/22 17:32:05;;;;;;;26.83;11.45;;;;;;;-3.44;100.00;95575.28;10276987;28;20034;-76
2021/12/22 17:37:05;;;;;;;18.65;11.25;;;;;;;-3.40;100.00;95583.66;10277891;28;20023;-75
2021/12/22 17:42:06;;;;;;;22.65;11.48;;;;;;;-3.37;100.00;95588.56;10280753;28;20504;-75
2021/12/22 17:47:06;;;;;;;31.08;12.35;;;;;;;-3.29;100.00;95583.31;10286516;28;20078;-76
2021/12/22 17:52:09;;;;;;;30.10;12.10;;;;;;;-3.15;100.00;95583.63;10288040;28;20158;-77
2021/12/22 17:57:11;;;;;;;24.33;11.52;;;;;;;-3.19;100.00;95587.59;10286823;28;20051;-80
2021/12/22 18:02:12;;;;;;;16.25;9.70;;;;;;;-3.19;100.00;95595.47;10286734;28;20138;-79
2021/12/22 18:07:12;;;;;;;22.55;10.55;;;;;;;-3.02;100.00;95609.41;10291320;28;20054;-80
2021/12/22 18:12:13;;;;;;;19.70;9.02;;;;;;;-3.04;100.00;95601.69;10300043;28;20538;-75
2021/12/22 18:17:14;;;;;;;19.17;10.35;;;;;;;-3.10;100.00;95602.34;10322829;28;20121;-74
2021/12/22 18:22:14;;;;;;;18.40;8.82;;;;;;;-2.93;100.00;95601.34;10312241;28;20126;-76
2021/12/22 18:27:16;;;;;;;20.48;9.25;;;;;;;-2.91;100.00;95601.19;10283352;28;20065;-76
2021/12/22 18:32:16;;;;;;;15.77;10.00;;;;;;;-2.92;100.00;95612.69;10281461;28;20115;-72
2021/12/22 18:37:25;;;;;;;13.32;7.07;;;;;;;-2.87;100.00;95615.63;10246991;28;20027;-71
2021/12/22 18:42:26;;;;;;;15.95;6.57;;;;;;;-2.89;100.00;95611.53;10280486;28;20041;-71
2021/12/22 18:47:27;;;;;;;15.73;6.95;;;;;;;-3.03;100.00;95620.91;10277724;28;20039;-72
2021/12/22 18:52:27;;;;;;;17.38;7.32;;;;;;;-3.03;100.00;95624.34;10388314;23;20084;-73
2021/12/22 18:57:30;;;;;;;14.70;7.28;;;;;;;-3.06;100.00;95627.31;10282595;28;20074;-75
2021/12/22 19:02:31;;;;;;;16.10;8.35;;;;;;;-3.02;100.00;95636.53;10271060;28;20031;-77
2021/12/22 19:07:31;;;;;;;17.60;7.72;;;;;;;-3.10;100.00;95644.41;10296842;28;20034;-72
2021/12/22 19:12:32;;;;;;;12.05;8.75;;;;;;;-3.20;100.00;95641.16;10279473;28;20026;-71
2021/12/22 19:17:33;;;;;;;20.67;8.90;;;;;;;-3.18;100.00;95657.56;10262418;28;20066;-79
2021/12/22 19:22:33;;;;;;;16.48;7.63;;;;;;;-3.22;100.00;95649.19;10265717;28;20034;-76
2021/12/22 19:27:34;;;;;;;24.80;8.73;;;;;;;-3.28;100.00;95657.72;10262916;28;20045;-73
2021/12/22 19:32:36;;;;;;;19.25;8.45;;;;;;;-3.25;100.00;95657.41;10272773;28;20540;-72
2021/12/22 19:37:37;;;;;;;20.02;8.43;;;;;;;-3.15;100.00;95663.31;10272538;28;20024;-77
2021/12/22 19:42:39;;;;;;;19.90;9.00;;;;;;;-3.26;100.00;95667.09;10250868;28;20042;-78
2021/12/22 19:47:40;;;;;;;18.73;9.20;;;;;;;-3.17;100.00;95673.16;10279033;28;20035;-77
2021/12/22 19:52:42;;;;;;;16.25;8.63;;;;;;;-3.08;100.00;95679.28;10244178;28;20058;-77
2021/12/22 19:57:42;;;;;;;16.25;8.23;;;;;;;-3.24;100.00;95674.00;10247476;28;20214;-71
2021/12/22 20:02:43;;;;;;;21.48;9.43;;;;;;;-3.03;100.00;95676.94;10235020;28;20170;-78
2021/12/22 20:07:44;;;;;;;24.02;9.57;;;;;;;-2.92;100.00;95660.84;10227890;28;20035;-77
2021/12/22 20:12:44;;;;;;;17.92;9.15;;;;;;;-2.78;100.00;95651.47;10248464;28;20440;-72
2021/12/22 20:17:45;;;;;;;21.58;8.82;;;;;;;-2.78;100.00;95648.00;10239094;28;20015;-73
2021/12/22 20:22:46;;;;;;;16.83;9.45;;;;;;;-2.75;100.00;95651.13;10239084;29;20441;-74
2021/12/22 20:27:46;;;;;;;17.40;8.48;;;;;;;-2.68;100.00;95650.44;10233032;29;20046;-76
2021/12/22 20:32:48;;;;;;;14.77;8.75;;;;;;;-2.76;100.00;95656.56;10221619;29;20512;-73
2021/12/22 20:37:48;;;;;;;19.10;8.52;;;;;;;-2.62;100.00;95657.69;10207707;29;20063;-71
2021/12/22 20:42:49;;;;;;;13.20;6.70;;;;;;;-2.50;100.00;95652.88;10216330;29;20563;-74
2021/12/22 20:47:51;;;;;;;13.73;8.50;;;;;;;-2.53;99.23;95650.59;10237917;28;20030;-75
2021/12/22 20:52:53;;;;;;;17.20;8.20;;;;;;;-2.55;99.77;95648.13;10239344;28;20134;-74
2021/12/22 20:57:53;;;;;;;17.42;7.57;;;;;;;-2.49;99.46;95651.88;10239755;28;20465;-71
2021/12/22 21:02:54;;;;;;;19.35;8.18;;;;;;;-2.45;95.41;95648.75;10238551;29;20097;-72
2021/12/22 21:07:57;;;;;;;18.48;8.90;;;;;;;-2.46;94.89;95646.28;10239658;28;20055;-80
2021/12/22 21:13:01;;;;;;;12.05;7.65;;;;;;;-2.62;95.54;95641.91;10201750;29;20040;-73
2021/12/22 21:18:02;;;;;;;14.35;8.05;;;;;;;-2.55;98.31;95648.13;10233438;28;20038;-74
2021/12/22 21:23:06;;;;;;;15.90;9.05;;;;;;;-2.61;97.76;95649.63;10244686;28;20497;-77
2021/12/22 21:28:07;;;;;;;12.57;6.43;;;;;;;-2.56;99.15;95645.66;10244087;28;20062;-78
2021/12/22 21:33:10;;;;;;;13.07;8.02;;;;;;;-2.67;100.00;95649.47;10245843;28;20122;-75
2021/12/22 21:38:11;;;;;;;14.98;6.85;;;;;;;-2.67;100.00;95655.53;10248993;28;20031;-75
2021/12/22 21:43:12;;;;;;;14.55;7.88;;;;;;;-2.72;100.00;95646.50;10249460;28;20031;-75
2021/12/22 21:48:13;;;;;;;13.48;8.55;;;;;;;-2.62;100.00;95655.06;10250223;28;20031;-76
2021/12/22 21:53:13;;;;;;;18.05;9.00;;;;;;;-2.66;100.00;95649.28;10261660;28;20513;-76
2021/12/22 21:58:15;;;;;;;12.13;6.40;;;;;;;-2.73;100.00;95658.84;10238422;29;20074;-74
2021/12/22 22:03:15;;;;;;;14.25;7.40;;;;;;;-2.75;100.00;95651.13;10244776;28;20421;-74
2021/12/22 22:08:16;;;;;;;19.58;7.78;;;;;;;-2.75;100.00;95652.91;10252649;28;20023;-76
2021/12/22 22:13:17;;;;;;;14.30;7.15;;;;;;;-2.84;100.00;95656.56;10252588;28;20064;-75
2021/12/22 22:18:18;;;;;;;16.90;8.95;;;;;;;-2.85;100.00;95652.28;10246531;28;20047;-78
2021/12/22 22:23:18;;;;;;;21.92;11.10;;;;;;;-2.98;100.00;95650.19;10246163;28;20145;-80
2021/12/22 22:28:19;;;;;;;22.65;9.65;;;;;;;-3.06;100.00;95645.72;10244769;28;20043;-73
2021/12/22 22:33:20;;;;;;;17.90;9.95;;;;;;;-3.20;100.00;95649.03;10246916;28;20109;-74
2021/12/22 22:38:20;;;;;;;21.38;12.43;;;;;;;-3.24;100.00;95658.22;10236130;29;20516;-77
2021/12/22 22:43:21;;;;;;;31.08;13.50;;;;;;;-3.47;100.00;95661.50;10246976;28;20035;-77
2021/12/22 22:48:22;;;;;;;25.33;13.90;;;;;;;-3.53;100.00;95673.50;10244862;29;20024;-76
2021/12/22 22:53:23;;;;;;;20.15;11.38;;;;;;;-3.68;100.00;95665.41;10246664;29;20067;-76
2021/12/22 22:58:24;;;;;;;28.67;12.38;;;;;;;-3.80;100.00;95662.25;10246978;28;20537;-77
2021/12/22 23:03:24;;;;;;;19.40;11.23;;;;;;;-3.93;100.00;95651.41;10253564;28;20109;-76
2021/12/22 23:08:25;;;;;;;16.00;9.50;;;;;;;-4.21;100.00;95658.72;10238435;28;20058;-78
2021/12/22 23:13:28;;;;;;;17.75;10.25;;;;;;;-4.25;100.00;95654.75;10229774;29;20043;-74
2021/12/22 23:18:29;;;;;;;15.20;10.07;;;;;;;-4.56;100.00;95650.00;10228141;29;20032;-77
2021/12/22 23:23:31;;;;;;;17.95;10.15;;;;;;;-4.60;100.00;95651.28;10242908;28;20034;-72